createdAt,value
2018-08-13T00:01:27.521Z,57.45
2018-08-13T00:03:55.749Z,57.64
2018-08-13T00:06:23.993Z,57.40
2018-08-13T00:08:52.266Z,58.01
2018-08-13T00:11:20.517Z,57.62
2018-08-13T00:13:48.776Z,58.00
2018-08-13T00:16:16.994Z,58.03
2018-08-13T00:18:45.249Z,58.33
2018-08-13T00:21:13.505Z,58.47
2018-08-13T00:23:41.721Z,58.44
2018-08-13T00:26:09.963Z,58.58
2018-08-13T00:28:38.193Z,58.56
2018-08-13T00:31:06.550Z,57.85
2018-08-13T00:33:34.793Z,57.15
2018-08-13T00:36:03.041Z,57.08
2018-08-13T00:38:31.306Z,57.40
2018-08-13T00:41:00.989Z,57.42
2018-08-13T00:43:29.234Z,57.26
2018-08-13T00:45:57.463Z,58.22
2018-08-13T00:48:25.725Z,58.85
2018-08-13T00:50:53.944Z,58.07
2018-08-13T00:53:22.221Z,57.93
2018-08-13T00:55:50.465Z,57.99
2018-08-13T00:58:18.745Z,58.93
2018-08-13T01:00:46.981Z,58.49
2018-08-13T01:03:15.241Z,57.92
2018-08-13T01:05:43.481Z,58.57
2018-08-13T01:08:11.710Z,58.96
2018-08-13T01:10:39.926Z,59.19
2018-08-13T01:13:08.189Z,59.08
2018-08-13T01:15:36.443Z,59.26
2018-08-13T01:18:05.581Z,59.21
2018-08-13T01:20:33.821Z,59.38
2018-08-13T01:23:02.045Z,58.71
2018-08-13T01:25:30.285Z,59.00
2018-08-13T01:27:58.493Z,58.96
2018-08-13T01:30:26.729Z,58.98
2018-08-13T01:32:54.973Z,59.39
2018-08-13T01:35:23.189Z,59.18
2018-08-13T01:37:51.421Z,59.49
2018-08-13T01:40:19.636Z,59.70
2018-08-13T01:42:47.900Z,60.37
2018-08-13T01:45:16.149Z,60.33
2018-08-13T01:47:44.393Z,60.04
2018-08-13T01:50:13.268Z,60.10
2018-08-13T01:52:41.549Z,61.04
2018-08-13T01:55:10.675Z,60.62
2018-08-13T01:57:38.945Z,61.18
2018-08-13T02:00:10.429Z,60.95
2018-08-13T02:02:38.681Z,59.66
2018-08-13T02:05:07.025Z,59.84
2018-08-13T02:07:35.401Z,60.19
2018-08-13T02:10:03.643Z,59.88
2018-08-13T02:12:31.925Z,60.00
2018-08-13T02:15:00.155Z,60.21
2018-08-13T02:17:28.417Z,59.80
2018-08-13T02:19:56.662Z,61.10
2018-08-13T02:22:24.937Z,60.70
2018-08-13T02:24:53.179Z,60.82
2018-08-13T02:27:21.457Z,60.44
2018-08-13T02:29:49.689Z,60.93
2018-08-13T02:32:17.932Z,60.05
2018-08-13T02:34:46.143Z,60.31
2018-08-13T02:37:14.383Z,59.99
2018-08-13T02:39:42.639Z,58.81
2018-08-13T02:42:10.896Z,58.53
2018-08-13T02:44:39.149Z,57.92
2018-08-13T02:47:07.401Z,58.32
2018-08-13T02:49:35.629Z,58.36
2018-08-13T02:52:04.271Z,56.75
2018-08-13T02:54:32.508Z,58.02
2018-08-13T02:57:00.759Z,57.59
2018-08-13T02:59:28.993Z,57.47
2018-08-13T03:01:57.230Z,57.30
2018-08-13T03:04:25.485Z,57.52
2018-08-13T03:06:57.921Z,56.80
2018-08-13T03:09:26.142Z,56.32
2018-08-13T03:11:54.361Z,56.15
2018-08-13T03:14:22.605Z,55.18
2018-08-13T03:16:50.861Z,55.43
2018-08-13T03:19:19.082Z,55.15
2018-08-13T03:21:47.355Z,55.25
2018-08-13T03:24:15.590Z,54.42
2018-08-13T03:26:43.875Z,53.85
2018-08-13T03:29:12.078Z,54.55
2018-08-13T03:31:40.333Z,53.43
2018-08-13T03:34:08.545Z,53.80
2018-08-13T03:36:37.253Z,54.83
2018-08-13T03:39:08.721Z,54.11
2018-08-13T03:41:36.973Z,55.35
2018-08-13T03:44:05.237Z,55.23
2018-08-13T03:46:33.497Z,54.78
2018-08-13T03:49:01.721Z,55.25
2018-08-13T03:51:30.010Z,54.69
2018-08-13T03:53:58.241Z,54.87
2018-08-13T03:56:26.469Z,54.54
2018-08-13T03:58:54.733Z,55.11
2018-08-13T04:01:22.985Z,54.25
2018-08-13T04:03:51.253Z,54.19
2018-08-13T04:06:19.473Z,54.94
2018-08-13T04:08:47.713Z,53.83
2018-08-13T04:11:15.977Z,54.02
2018-08-13T04:13:44.217Z,55.29
2018-08-13T04:16:12.481Z,55.37
2018-08-13T04:18:40.730Z,55.16
2018-08-13T04:21:08.980Z,58.26
2018-08-13T04:23:37.221Z,58.49
2018-08-13T04:26:07.772Z,55.69
2018-08-13T04:28:35.997Z,52.92
2018-08-13T04:31:04.225Z,58.33
2018-08-13T04:33:32.457Z,64.71
2018-08-13T04:36:00.686Z,56.88
2018-08-13T04:38:28.912Z,57.22
2018-08-13T04:40:57.153Z,57.04
2018-08-13T04:43:25.362Z,62.11
2018-08-13T04:45:53.581Z,66.51
2018-08-13T04:48:21.813Z,67.65
2018-08-13T04:50:50.053Z,70.44
2018-08-13T04:53:18.265Z,70.71
2018-08-13T04:55:46.666Z,73.44
2018-08-13T04:58:14.915Z,74.77
2018-08-13T05:00:43.133Z,58.27
2018-08-13T05:03:11.385Z,69.07
2018-08-13T05:05:39.601Z,72.61
2018-08-13T05:08:07.977Z,74.48
2018-08-13T05:10:36.190Z,71.14
2018-08-13T05:13:04.476Z,66.36
2018-08-13T05:15:32.710Z,64.64
2018-08-13T05:18:00.953Z,71.93
2018-08-13T05:20:29.177Z,65.81
2018-08-13T05:22:57.443Z,73.06
2018-08-13T05:25:25.674Z,76.01
2018-08-13T05:27:53.917Z,75.44
2018-08-13T05:30:22.296Z,77.07
2018-08-13T05:32:50.505Z,74.69
2018-08-13T05:35:18.741Z,75.40
2018-08-13T05:37:46.997Z,75.75
2018-08-13T05:40:15.340Z,76.95
2018-08-13T05:42:43.564Z,79.65
2018-08-13T05:45:11.784Z,79.48
2018-08-13T05:47:40.275Z,77.71
2018-08-13T05:50:09.896Z,80.64
2018-08-13T05:52:38.170Z,82.05
2018-08-13T05:55:06.600Z,82.11
2018-08-13T05:57:34.837Z,80.55
2018-08-13T06:00:03.185Z,82.13
2018-08-13T06:02:31.434Z,82.05
2018-08-13T06:04:59.665Z,82.97
2018-08-13T06:07:27.890Z,78.11
2018-08-13T06:09:56.101Z,69.62
2018-08-13T06:12:24.350Z,73.34
2018-08-13T06:14:52.577Z,74.93
2018-08-13T06:17:20.859Z,79.20
2018-08-13T06:19:49.093Z,76.86
2018-08-13T06:22:17.342Z,80.42
2018-08-13T06:24:45.609Z,81.22
2018-08-13T06:27:13.910Z,82.27
2018-08-13T06:29:42.152Z,77.81
2018-08-13T06:32:10.501Z,78.02
2018-08-13T06:34:39.676Z,81.19
2018-08-13T06:37:09.913Z,82.21
2018-08-13T06:39:38.184Z,82.04
2018-08-13T06:42:06.564Z,81.59
2018-08-13T06:44:35.073Z,82.47
2018-08-13T06:47:03.450Z,82.42
2018-08-13T06:49:31.798Z,82.92
2018-08-13T06:52:00.090Z,82.91
2018-08-13T06:54:28.343Z,84.02
2018-08-13T06:56:56.609Z,83.81
2018-08-13T06:59:24.965Z,84.81
2018-08-13T07:01:53.181Z,83.87
2018-08-13T07:04:21.418Z,84.17
2018-08-13T07:06:49.668Z,84.34
2018-08-13T07:09:17.906Z,84.79
2018-08-13T07:11:46.265Z,85.98
2018-08-13T07:14:14.541Z,85.21
2018-08-13T07:16:42.789Z,85.88
2018-08-13T07:19:11.045Z,85.72
2018-08-13T07:21:39.293Z,86.09
2018-08-13T07:24:07.637Z,86.55
2018-08-13T07:26:35.927Z,86.58
2018-08-13T07:29:04.197Z,88.21
2018-08-13T07:31:32.450Z,87.54
2018-08-13T07:34:00.707Z,87.46
2018-08-13T07:36:28.961Z,88.40
2018-08-13T07:38:57.211Z,89.07
2018-08-13T07:41:25.517Z,89.19
2018-08-13T07:43:53.773Z,88.77
2018-08-13T07:46:22.020Z,89.29
2018-08-13T07:48:50.253Z,89.56
2018-08-13T07:51:18.517Z,84.36
2018-08-13T07:53:49.646Z,87.51
2018-08-13T07:56:17.889Z,86.26
2018-08-13T07:58:46.209Z,83.38
2018-08-13T08:01:14.474Z,79.83
2018-08-13T08:03:42.832Z,82.23
2018-08-13T08:06:11.085Z,79.08
2018-08-13T08:08:39.357Z,76.87
2018-08-13T08:11:07.889Z,76.54
2018-08-13T08:13:36.208Z,76.79
2018-08-13T08:16:04.506Z,76.38
2018-08-13T08:18:32.774Z,73.45
2018-08-13T08:21:01.074Z,74.55
2018-08-13T08:23:29.372Z,75.44
2018-08-13T08:25:57.644Z,75.76
2018-08-13T08:28:25.945Z,73.58
2018-08-13T08:30:54.197Z,73.10
2018-08-13T08:33:22.473Z,75.64
2018-08-13T08:35:50.733Z,73.67
2018-08-13T08:38:19.005Z,70.78
2018-08-13T08:40:47.284Z,69.57
2018-08-13T08:43:15.587Z,68.10
2018-08-13T08:45:43.858Z,70.30
2018-08-13T08:48:12.146Z,69.64
2018-08-13T08:50:40.397Z,70.24
2018-08-13T08:53:08.642Z,73.60
2018-08-13T08:55:36.966Z,73.49
2018-08-13T08:58:05.253Z,69.51
2018-08-13T09:00:33.593Z,73.42
2018-08-13T09:03:01.837Z,70.33
2018-08-13T09:05:30.086Z,67.76
2018-08-13T09:07:58.365Z,68.07
2018-08-13T09:10:26.641Z,67.55
2018-08-13T09:12:54.902Z,68.53
2018-08-13T09:15:23.215Z,66.67
2018-08-13T09:18:02.785Z,66.93
2018-08-13T09:21:44.110Z,67.90
2018-08-13T09:24:23.606Z,63.97
2018-08-13T09:28:06.793Z,75.08
2018-08-13T09:30:46.318Z,75.83
2018-08-13T09:33:25.802Z,76.36
2018-08-13T09:35:54.058Z,74.31
2018-08-13T09:38:22.349Z,70.23
2018-08-13T09:40:50.629Z,72.09
2018-08-13T09:43:18.908Z,72.54
2018-08-13T09:45:47.174Z,67.79
2018-08-13T09:48:15.459Z,75.02
2018-08-13T09:50:43.705Z,76.01
2018-08-13T09:53:11.949Z,74.93
2018-08-13T09:55:40.213Z,80.13
2018-08-13T09:58:08.493Z,77.17
2018-08-13T10:00:42.165Z,74.82
2018-08-13T10:03:10.447Z,81.39
2018-08-13T10:05:38.766Z,81.31
2018-08-13T10:08:07.064Z,80.82
2018-08-13T10:10:35.323Z,77.67
2018-08-13T10:13:03.649Z,78.18
2018-08-13T10:15:31.905Z,78.50
2018-08-13T10:18:00.251Z,79.59
2018-08-13T10:20:28.545Z,80.99
2018-08-13T10:22:56.789Z,82.44
2018-08-13T10:25:25.026Z,81.55
2018-08-13T10:27:53.265Z,81.93
2018-08-13T10:30:21.493Z,82.81
2018-08-13T10:32:49.741Z,85.20
2018-08-13T10:35:18.049Z,84.09
2018-08-13T10:37:46.298Z,84.57
2018-08-13T10:40:16.866Z,80.66
2018-08-13T10:42:45.537Z,82.78
2018-08-13T10:45:14.099Z,84.61
2018-08-13T10:47:42.354Z,83.28
2018-08-13T10:50:12.266Z,82.32
2018-08-13T10:52:40.869Z,82.51
2018-08-13T10:55:10.182Z,82.29
2018-08-13T10:57:38.454Z,83.96
2018-08-13T11:00:08.721Z,84.24
2018-08-13T11:02:37.038Z,85.28
2018-08-13T11:05:06.837Z,80.56
2018-08-13T11:07:35.109Z,82.00
2018-08-13T11:10:03.432Z,78.29
2018-08-13T11:12:31.665Z,81.41
2018-08-13T11:14:59.914Z,79.98
2018-08-13T11:17:28.177Z,82.53
2018-08-13T11:19:57.425Z,79.32
2018-08-13T11:22:25.670Z,78.88
2018-08-13T11:24:53.953Z,79.11
2018-08-13T11:27:22.229Z,79.13
2018-08-13T11:29:50.490Z,80.02
2018-08-13T11:32:19.234Z,79.35
2018-08-13T11:34:47.574Z,79.15
2018-08-13T11:37:15.745Z,80.23
2018-08-13T11:39:43.973Z,78.48
2018-08-13T11:42:12.258Z,78.19
2018-08-13T11:44:40.494Z,77.32
2018-08-13T11:47:08.745Z,78.92
2018-08-13T11:49:37.013Z,78.42
2018-08-13T11:52:05.701Z,76.21
2018-08-13T11:54:33.981Z,77.51
2018-08-13T11:57:02.357Z,76.17
2018-08-13T11:59:30.614Z,73.28
2018-08-13T12:01:58.910Z,70.58
2018-08-13T12:04:27.094Z,67.47
2018-08-13T12:06:55.330Z,65.84
2018-08-13T12:09:23.576Z,64.15
2018-08-13T12:11:51.807Z,62.79
2018-08-13T12:14:20.078Z,62.87
2018-08-13T12:16:48.317Z,60.01
2018-08-13T12:19:16.617Z,61.78
2018-08-13T12:21:44.851Z,58.39
2018-08-13T12:24:13.117Z,58.44
2018-08-13T12:26:41.346Z,58.45
2018-08-13T12:29:09.585Z,59.23
2018-08-13T12:31:37.813Z,58.53
2018-08-13T12:34:06.171Z,58.47
2018-08-13T12:36:34.463Z,55.99
2018-08-13T12:39:02.766Z,57.15
2018-08-13T12:41:31.238Z,57.37
2018-08-13T12:43:59.573Z,56.02
2018-08-13T12:46:27.857Z,57.94
2018-08-13T12:48:56.098Z,57.14
2018-08-13T12:51:24.321Z,55.61
2018-08-13T12:53:52.569Z,57.21
2018-08-13T12:56:20.853Z,57.86
2018-08-13T12:58:49.166Z,55.56
2018-08-13T13:01:18.437Z,55.22
2018-08-13T13:03:46.718Z,55.13
2018-08-13T13:06:14.939Z,54.63
2018-08-13T13:08:43.189Z,55.25
2018-08-13T13:11:13.518Z,56.09
2018-08-13T13:13:41.811Z,51.17
2018-08-13T13:16:10.161Z,51.21
2018-08-13T13:18:38.779Z,50.33
2018-08-13T13:21:07.025Z,50.87
2018-08-13T13:23:38.610Z,53.13
2018-08-13T13:26:06.894Z,56.45
2018-08-13T13:28:35.124Z,57.99
2018-08-13T13:31:03.409Z,58.41
2018-08-13T13:33:31.806Z,60.20
2018-08-13T13:36:00.070Z,59.77
2018-08-13T13:38:28.322Z,59.70
2018-08-13T13:40:56.553Z,61.74
2018-08-13T13:43:24.833Z,60.69
2018-08-13T13:45:53.085Z,60.63
2018-08-13T13:48:21.325Z,60.66
2018-08-13T13:50:49.566Z,58.05
2018-08-13T13:53:17.942Z,58.04
2018-08-13T13:55:46.186Z,56.37
2018-08-13T13:58:14.459Z,57.35
2018-08-13T14:00:42.714Z,56.83
2018-08-13T14:03:10.958Z,56.80
2018-08-13T14:05:39.194Z,55.40
2018-08-13T14:08:07.466Z,54.32
2018-08-13T14:10:36.014Z,54.17
2018-08-13T14:13:04.272Z,54.44
2018-08-13T14:15:32.545Z,55.07
2018-08-13T14:18:00.797Z,54.01
2018-08-13T14:20:29.087Z,54.91
2018-08-13T14:22:57.377Z,54.45
2018-08-13T14:25:25.626Z,54.89
2018-08-13T14:27:53.870Z,53.82
2018-08-13T14:30:29.057Z,53.25
2018-08-13T14:32:57.326Z,53.90
2018-08-13T14:35:25.965Z,53.50
2018-08-13T14:37:54.200Z,53.98
2018-08-13T14:40:22.484Z,53.48
2018-08-13T14:42:50.728Z,53.83
2018-08-13T14:45:19.561Z,53.19
2018-08-13T14:47:49.552Z,52.42
2018-08-13T14:50:17.926Z,51.90
2018-08-13T14:52:47.261Z,50.63
2018-08-13T14:55:17.625Z,50.51
2018-08-13T14:57:45.907Z,49.77
2018-08-13T15:00:24.748Z,47.05
2018-08-13T15:02:53.909Z,46.38
2018-08-13T15:05:22.197Z,47.13
2018-08-13T15:07:50.473Z,47.28
2018-08-13T15:10:20.430Z,47.61
2018-08-13T15:12:48.766Z,49.59
2018-08-13T15:15:17.008Z,49.12
2018-08-13T15:17:45.290Z,49.94
2018-08-13T15:20:15.567Z,48.89
2018-08-13T15:22:43.827Z,49.70
2018-08-13T15:25:12.114Z,48.14
2018-08-13T15:27:40.464Z,49.75
2018-08-13T15:30:11.958Z,49.81
2018-08-13T15:32:40.358Z,50.00
2018-08-13T15:35:08.947Z,51.26
2018-08-13T15:37:37.309Z,50.65
2018-08-13T15:40:05.869Z,51.69
2018-08-13T15:42:34.647Z,52.83
2018-08-13T15:45:02.992Z,53.82
2018-08-13T15:47:31.234Z,53.57
2018-08-13T15:49:59.475Z,54.09
2018-08-13T15:52:27.762Z,54.26
2018-08-13T15:54:56.006Z,54.44
2018-08-13T15:57:24.222Z,53.61
2018-08-13T15:59:52.473Z,53.48
2018-08-13T16:02:20.744Z,51.64
2018-08-13T16:04:49.001Z,51.62
2018-08-13T16:07:17.217Z,50.71
2018-08-13T16:09:45.455Z,51.85
2018-08-13T16:12:13.727Z,51.46
2018-08-13T16:14:41.954Z,52.06
2018-08-13T16:17:10.185Z,51.59
2018-08-13T16:19:38.420Z,50.81
2018-08-13T16:22:06.714Z,50.67
2018-08-13T16:24:35.565Z,50.29
2018-08-13T16:27:03.837Z,51.78
2018-08-13T16:29:32.103Z,50.40
2018-08-13T16:32:00.557Z,50.41
2018-08-13T16:34:28.785Z,51.43
2018-08-13T16:36:57.018Z,51.65
2018-08-13T16:39:25.275Z,50.98
2018-08-13T16:41:53.542Z,50.99
2018-08-13T16:44:21.781Z,50.63
2018-08-13T16:46:50.054Z,51.70
2018-08-13T16:49:18.301Z,50.41
2018-08-13T16:51:46.569Z,51.01
2018-08-13T16:54:14.941Z,52.40
2018-08-13T16:56:43.226Z,54.39
2018-08-13T16:59:11.457Z,53.00
2018-08-13T17:01:39.714Z,54.30
2018-08-13T17:04:08.050Z,54.31
2018-08-13T17:06:36.356Z,54.86
2018-08-13T17:09:06.566Z,53.39
2018-08-13T17:11:34.829Z,55.87
2018-08-13T17:14:04.572Z,54.30
2018-08-13T17:16:32.803Z,55.37
2018-08-13T17:19:01.086Z,54.37
2018-08-13T17:21:29.369Z,54.58
2018-08-13T17:23:57.621Z,54.67
2018-08-13T17:26:25.938Z,55.62
2018-08-13T17:28:54.201Z,55.90
2018-08-13T17:31:22.465Z,55.00
2018-08-13T17:33:50.731Z,55.06
2018-08-13T17:36:18.985Z,55.02
2018-08-13T17:38:47.265Z,55.62
2018-08-13T17:41:15.521Z,55.00
2018-08-13T17:43:43.826Z,55.53
2018-08-13T17:46:12.057Z,55.67
2018-08-13T17:48:40.278Z,55.89
2018-08-13T17:51:08.565Z,56.33
2018-08-13T17:53:36.806Z,56.60
2018-08-13T17:56:05.077Z,55.93
2018-08-13T17:58:33.306Z,56.95
2018-08-13T18:01:01.526Z,56.13
2018-08-13T18:03:29.761Z,56.74
2018-08-13T18:05:58.047Z,57.01
2018-08-13T18:08:26.309Z,57.64
2018-08-13T18:10:54.546Z,56.80
2018-08-13T18:13:22.817Z,57.06
2018-08-13T18:15:51.049Z,57.76
2018-08-13T18:18:19.294Z,58.88
2018-08-13T18:20:49.309Z,59.14
2018-08-13T18:23:17.548Z,58.92
2018-08-13T18:25:46.214Z,59.91
2018-08-13T18:28:14.465Z,59.46
2018-08-13T18:30:42.765Z,59.71
2018-08-13T18:33:11.158Z,59.33
2018-08-13T18:35:39.407Z,59.76
2018-08-13T18:38:07.798Z,59.15
2018-08-13T18:40:36.062Z,59.24
2018-08-13T18:43:04.360Z,59.36
2018-08-13T18:45:32.617Z,61.19
2018-08-13T18:48:01.083Z,60.45
2018-08-13T18:50:29.347Z,61.25
2018-08-13T18:52:57.575Z,60.94
2018-08-13T18:55:26.205Z,60.87
2018-08-13T18:57:54.905Z,61.11
2018-08-13T19:00:28.765Z,61.69
2018-08-13T19:02:57.934Z,62.02
2018-08-13T19:05:26.194Z,61.86
2018-08-13T19:07:54.406Z,62.48
2018-08-13T19:10:22.837Z,62.91
2018-08-13T19:12:51.097Z,61.41
2018-08-13T19:15:21.532Z,61.08
2018-08-13T19:17:50.078Z,61.54
2018-08-13T19:20:18.369Z,61.37
2018-08-13T19:22:46.699Z,62.05
2018-08-13T19:25:16.635Z,62.66
2018-08-13T19:27:45.326Z,61.82
2018-08-13T19:30:15.370Z,62.59
2018-08-13T19:32:44.369Z,62.72
2018-08-13T19:35:12.626Z,63.10
2018-08-13T19:37:40.926Z,61.32
2018-08-13T19:40:12.625Z,62.17
2018-08-13T19:42:40.875Z,60.49
2018-08-13T19:45:10.388Z,63.01
2018-08-13T19:47:38.633Z,62.59
2018-08-13T19:50:08.665Z,62.66
2018-08-13T19:52:37.083Z,61.58
2018-08-13T19:55:05.557Z,62.57
2018-08-13T19:57:33.831Z,62.80
2018-08-13T20:00:02.234Z,64.04
2018-08-13T20:02:30.472Z,61.94
2018-08-13T20:04:59.161Z,63.84
2018-08-13T20:07:27.433Z,63.08
2018-08-13T20:09:55.678Z,61.82
2018-08-13T20:12:24.017Z,62.87
2018-08-13T20:14:52.241Z,63.53
2018-08-13T20:17:21.679Z,64.81
2018-08-13T20:19:49.974Z,65.54
2018-08-13T20:22:18.198Z,64.35
2018-08-13T20:24:46.542Z,65.78
2018-08-13T20:27:14.749Z,64.81
2018-08-13T20:29:43.093Z,67.02
2018-08-13T20:32:11.433Z,65.34
2018-08-13T20:34:39.701Z,65.97
2018-08-13T20:37:08.044Z,66.67
2018-08-13T20:39:36.206Z,65.97
2018-08-13T20:42:04.521Z,65.54
2018-08-13T20:44:32.776Z,66.62
2018-08-13T20:47:01.061Z,67.39
2018-08-13T20:49:29.490Z,67.58
2018-08-13T20:51:57.729Z,67.46
2018-08-13T20:54:26.817Z,68.45
2018-08-13T20:56:55.072Z,68.87
2018-08-13T20:59:23.329Z,68.69
2018-08-13T21:01:51.574Z,67.67
2018-08-13T21:04:19.810Z,68.34
2018-08-13T21:06:48.077Z,68.51
2018-08-13T21:09:16.406Z,68.18
2018-08-13T21:11:44.632Z,67.94
2018-08-13T21:14:12.917Z,69.40
2018-08-13T21:16:41.193Z,69.04
2018-08-13T21:19:09.482Z,69.26
2018-08-13T21:21:37.695Z,69.58
2018-08-13T21:24:06.170Z,69.74
2018-08-13T21:26:34.482Z,69.24
2018-08-13T21:29:02.973Z,69.39
2018-08-13T21:31:31.233Z,70.39
2018-08-13T21:33:59.457Z,70.33
2018-08-13T21:36:27.735Z,70.51
2018-08-13T21:38:56.837Z,70.32
2018-08-13T21:41:26.446Z,70.15
2018-08-13T21:43:54.698Z,70.56
2018-08-13T21:46:23.008Z,70.58
2018-08-13T21:48:51.298Z,70.30
2018-08-13T21:51:19.713Z,71.02
2018-08-13T21:53:47.949Z,70.41
2018-08-13T21:56:16.205Z,70.23
2018-08-13T21:58:44.490Z,70.90
2018-08-13T22:01:18.277Z,71.03
2018-08-13T22:03:46.518Z,71.16
2018-08-13T22:06:14.770Z,71.32
2018-08-13T22:08:43.026Z,71.04
2018-08-13T22:11:11.646Z,71.30
2018-08-13T22:13:39.930Z,70.42
2018-08-13T22:16:08.227Z,71.61
2018-08-13T22:18:36.473Z,71.17
2018-08-13T22:21:04.745Z,72.31
2018-08-13T22:23:33.125Z,71.78
2018-08-13T22:26:01.381Z,72.80
2018-08-13T22:28:29.621Z,73.00
2018-08-13T22:30:57.915Z,72.83
2018-08-13T22:33:26.140Z,72.18
2018-08-13T22:35:54.397Z,73.10
2018-08-13T22:38:22.638Z,73.47
2018-08-13T22:40:50.877Z,73.18
2018-08-13T22:43:19.141Z,73.71
2018-08-13T22:45:47.380Z,71.96
2018-08-13T22:48:15.625Z,72.72
2018-08-13T22:50:43.841Z,73.13
2018-08-13T22:53:12.065Z,72.92
2018-08-13T22:55:40.313Z,73.07
2018-08-13T22:58:08.741Z,73.05
2018-08-13T23:00:36.951Z,73.12
2018-08-13T23:03:05.254Z,73.71
2018-08-13T23:05:33.513Z,72.96
2018-08-13T23:08:01.780Z,73.64
2018-08-13T23:10:30.021Z,73.17
2018-08-13T23:12:58.282Z,74.35
2018-08-13T23:15:26.578Z,75.22
2018-08-13T23:17:55.014Z,74.89
2018-08-13T23:20:25.091Z,73.76
2018-08-13T23:22:58.281Z,74.04
2018-08-13T23:25:27.101Z,74.63
2018-08-13T23:27:56.545Z,73.95
2018-08-13T23:30:24.833Z,75.71
2018-08-13T23:32:54.206Z,74.69
2018-08-13T23:35:23.205Z,76.20
2018-08-13T23:37:51.757Z,75.24
2018-08-13T23:40:19.973Z,75.09
2018-08-13T23:42:48.373Z,74.70
2018-08-13T23:45:20.822Z,75.20
2018-08-13T23:47:49.137Z,74.41
2018-08-13T23:50:20.717Z,73.77
2018-08-13T23:52:49.918Z,73.47
2018-08-13T23:55:32.141Z,73.30
2018-08-13T23:58:00.754Z,73.29
